マナウス の空港の天気 - METARとTAF

エドワルド ゴメス国際空港(マナウス) ( SBEG / MAO ) - ブラジル アマゾナス州マナウス
飛行場実況気象(Metar)
観測時間11/17 14:00 AMT (11/17 18:00 UTC)
風向・風速北 4m/s
視程10km以上
天気現象
全天の4割程度の雲 雲底高度 760m
少しの雲 雲底高度 910m
気温32℃
湿度59%
気圧1008hPa
METARSBEG 171800Z 01007KT 9999 SCT025 FEW030TCU 32/23 Q1008
過去の天気等 Google飛行場航空写真 Wunderground天気予報

過去48時間のMETAR

飛行場予報(TAF)
発表時間: 11/17 12:00 AMT (11/17 16:00 UTC)
予報対象時間: 17日14時 AMT ~ 18日14時 AMT
風向・風速北 4m/s
視程10km以上
全天の4割程度の雲 雲底高度 760m
少しの塔状積雲 雲底高度 910m
17日15時 AMT ~ 17日17時 AMT に徐々に
風向・風速東北東 3m/s
視程10km以上
天気現象雷雨
全天の4割程度の雲 雲底高度 610m
少しの積乱雲 雲底高度 760m
17日19時 AMT ~ 17日21時 AMT に徐々に
17日23時 AMT ~ 18日1時 AMT に徐々に
風向・風速東 2m/s
18日3時 AMT ~ 18日5時 AMT に徐々に
視程10km以上
少しの雲 雲底高度 300m
18日11時 AMT ~ 18日13時 AMT に徐々に
全天の4割程度の雲 雲底高度 760m
少しの塔状積雲 雲底高度 910m
TAF SBEG 171600Z 1718/1818 01008KT 9999 SCT025 FEW030TCU TX32/1718Z T N25/1808Z
BECMG 1719/1721 06005KT 9999 TSRA SCT020 FEW025CB
BECMG 1723/1801 34 002KT CAVOK
BECMG 1803/1805 09003KT
BECMG 1807/1809 9999 FEW010
BECMG 1811 /1813 02008KT SCT020
BECMG 1815/1817 SCT025 FEW030TCU RMK PDY